Time;durP1;ratioP1;P1;durP2;ratioP2;P2;SDS_P1;SDS_P2;PMS_P1;PMS_P2;Temp;Humidity;BMP_temperature;BMP_pressure;BME280_temperature;BME280_humidity;BME280_pressure;Samples;Min_cycle;Max_cycle;Signal;HPM_P1;HPM_P2
2022/03/13 00:00:59;;;;;;;15.20;10.52;;;;;;;;;;143743;613;45021;-69
2022/03/13 00:03:28;;;;;;;18.17;11.50;;;;;;;;;;143742;610;46020;-68
2022/03/13 00:05:55;;;;;;;18.37;12.90;;;;;;;;;;143738;564;46920;-68
2022/03/13 00:08:32;;;;;;;19.52;12.68;;;;;;;;;;143742;606;45911;-70
2022/03/13 00:11:17;;;;;;;18.20;14.07;;;;;;;;;;143741;586;46020;-68
2022/03/13 00:13:53;;;;;;;25.90;15.60;;;;;;;;;;143727;583;47021;-68
2022/03/13 00:16:20;;;;;;;;;;;;;;;;;;143743;980;46020;-69
2022/03/13 00:18:48;;;;;;;17.77;13.25;;;;;;;;;;143746;580;45927;-68
2022/03/13 00:21:17;;;;;;;17.70;12.55;;;;;;;;;;143741;564;46021;-67
2022/03/13 00:23:45;;;;;;;22.35;14.80;;;;;;;;;;143740;604;46012;-69
2022/03/13 00:26:14;;;;;;;24.80;15.35;;;;;;;;;;143739;602;46020;-69
2022/03/13 00:28:43;;;;;;;34.72;17.50;;;;;;;;;;143741;575;46010;-67
2022/03/13 00:31:10;;;;;;;34.78;17.90;;;;;;;;;;143742;564;46020;-68
2022/03/13 00:33:37;;;;;;;27.17;15.30;;;;;;;;;;143741;588;46020;-68
2022/03/13 00:36:04;;;;;;;13.98;10.30;;;;;;;;;;143739;570;46021;-68
2022/03/13 00:38:32;;;;;;;25.58;14.52;;;;;;;;;;143741;598;46010;-68
2022/03/13 00:40:59;;;;;;;22.58;14.02;;;;;;;;;;143742;595;46020;-67
2022/03/13 00:43:28;;;;;;;22.30;13.77;;;;;;;;;;143742;641;46021;-70
2022/03/13 00:45:55;;;;;;;17.65;12.25;;;;;;;;;;143738;569;46919;-68
2022/03/13 00:48:24;;;;;;;17.52;11.38;;;;;;;;;;143740;603;46020;-68
2022/03/13 00:50:51;;;;;;;26.25;13.18;;;;;;;;;;143744;581;45021;-69
2022/03/13 00:53:18;;;;;;;21.33;13.07;;;;;;;;;;143741;617;46020;-69
2022/03/13 00:55:45;;;;;;;27.90;15.05;;;;;;;;;;143740;607;46919;-67
2022/03/13 00:58:12;;;;;;;24.02;13.88;;;;;;;;;;143740;569;46010;-69
2022/03/13 01:00:39;;;;;;;19.10;11.23;;;;;;;;;;143743;669;45020;-68
2022/03/13 01:03:06;;;;;;;22.87;15.25;;;;;;;;;;143742;572;46020;-68
2022/03/13 01:05:33;;;;;;;21.12;14.27;;;;;;;;;;143738;612;46920;-68
2022/03/13 01:08:00;;;;;;;21.98;13.73;;;;;;;;;;143742;571;45911;-67
2022/03/13 01:10:27;;;;;;;22.42;14.18;;;;;;;;;;143742;585;45020;-67
2022/03/13 01:12:55;;;;;;;21.05;13.75;;;;;;;;;;143742;662;46021;-67
2022/03/13 01:15:22;;;;;;;24.27;14.73;;;;;;;;;;143738;596;46920;-69
2022/03/13 01:17:49;;;;;;;25.27;17.25;;;;;;;;;;143742;627;46010;-68
2022/03/13 01:20:21;;;;;;;23.45;15.70;;;;;;;;;;143743;593;45021;-68
2022/03/13 01:22:49;;;;;;;30.10;18.10;;;;;;;;;;143739;570;47020;-68
2022/03/13 01:25:16;;;;;;;32.30;17.58;;;;;;;;;;143740;593;46020;-68
2022/03/13 01:27:44;;;;;;;40.17;21.60;;;;;;;;;;143742;749;45912;-70
2022/03/13 01:30:14;;;;;;;34.03;19.05;;;;;;;;;;143744;577;46020;-69
2022/03/13 01:32:42;;;;;;;32.80;19.90;;;;;;;;;;143741;589;46022;-67
2022/03/13 01:35:10;;;;;;;33.13;19.75;;;;;;;;;;143739;566;46021;-69
2022/03/13 01:37:42;;;;;;;34.55;20.33;;;;;;;;;;143741;564;45912;-67
2022/03/13 01:40:11;;;;;;;33.45;19.52;;;;;;;;;;143741;588;46020;-67
2022/03/13 01:42:40;;;;;;;32.15;20.52;;;;;;;;;;143741;581;46021;-68
2022/03/13 01:45:12;;;;;;;34.88;19.15;;;;;;;;;;143739;564;46919;-69
2022/03/13 01:47:40;;;;;;;30.30;18.33;;;;;;;;;;143742;587;45911;-69
2022/03/13 01:50:09;;;;;;;30.10;17.42;;;;;;;;;;143742;570;46020;-69
2022/03/13 01:52:38;;;;;;;40.42;21.55;;;;;;;;;;143742;574;46020;-68
2022/03/13 01:55:06;;;;;;;35.38;20.15;;;;;;;;;;143739;570;46020;-69
2022/03/13 01:57:36;;;;;;;32.20;19.90;;;;;;;;;;143741;606;46010;-67
2022/03/13 02:00:06;;;;;;;21.77;13.93;;;;;;;;;;143744;587;45020;-68
2022/03/13 02:02:34;;;;;;;39.63;21.02;;;;;;;;;;143742;565;46020;-69
2022/03/13 02:05:01;;;;;;;35.13;18.83;;;;;;;;;;143738;682;46920;-68
2022/03/13 02:07:30;;;;;;;33.08;16.87;;;;;;;;;;143742;576;45911;-69
2022/03/13 02:09:57;;;;;;;32.15;15.88;;;;;;;;;;143741;574;46020;-68
2022/03/13 02:12:26;;;;;;;32.88;16.87;;;;;;;;;;143742;564;46021;-69
2022/03/13 02:14:53;;;;;;;31.27;17.80;;;;;;;;;;143738;606;46920;-69
2022/03/13 02:17:35;;;;;;;35.78;21.10;;;;;;;;;;143741;771;45911;-69
2022/03/13 02:20:03;;;;;;;30.80;14.87;;;;;;;;;;143743;594;45021;-69
2022/03/13 02:22:31;;;;;;;32.55;16.90;;;;;;;;;;143741;583;47049;-70
2022/03/13 02:24:59;;;;;;;38.15;17.98;;;;;;;;;;143740;574;46020;-70
2022/03/13 02:27:29;;;;;;;30.12;16.12;;;;;;;;;;143742;594;45912;-70
2022/03/13 02:29:56;;;;;;;31.62;17.17;;;;;;;;;;143744;575;46020;-68
2022/03/13 02:32:23;;;;;;;37.13;19.65;;;;;;;;;;143740;564;46022;-68
2022/03/13 02:34:51;;;;;;;37.97;19.75;;;;;;;;;;143739;587;46920;-68
2022/03/13 02:37:41;;;;;;;38.22;20.02;;;;;;;;;;143741;593;45911;-68
2022/03/13 02:40:16;;;;;;;36.40;19.98;;;;;;;;;;143742;600;45020;-68
2022/03/13 02:42:43;;;;;;;38.33;19.35;;;;;;;;;;143742;731;46020;-68
2022/03/13 02:45:10;;;;;;;27.42;16.30;;;;;;;;;;143740;605;46020;-68
2022/03/13 02:47:37;;;;;;;36.72;18.83;;;;;;;;;;143742;588;45912;-70
2022/03/13 02:50:04;;;;;;;35.92;20.77;;;;;;;;;;143742;580;46021;-70
2022/03/13 02:52:31;;;;;;;40.75;22.87;;;;;;;;;;143741;593;46020;-68
2022/03/13 02:54:58;;;;;;;27.75;16.70;;;;;;;;;;143738;569;46920;-70
2022/03/13 02:57:25;;;;;;;31.83;17.67;;;;;;;;;;143742;567;46021;-68
2022/03/13 02:59:52;;;;;;;32.55;18.25;;;;;;;;;;143743;576;45020;-70
2022/03/13 03:02:19;;;;;;;24.12;14.57;;;;;;;;;;143742;595;47020;-68
2022/03/13 03:04:48;;;;;;;30.27;15.80;;;;;;;;;;143740;587;46020;-68
2022/03/13 03:07:16;;;;;;;28.48;14.82;;;;;;;;;;143742;605;46010;-69
2022/03/13 03:09:43;;;;;;;25.17;14.38;;;;;;;;;;143742;747;46020;-68
2022/03/13 03:12:10;;;;;;;30.23;17.70;;;;;;;;;;143742;581;46035;-69
2022/03/13 03:14:37;;;;;;;34.97;18.50;;;;;;;;;;143739;579;46020;-68
2022/03/13 03:17:05;;;;;;;33.28;19.73;;;;;;;;;;143742;569;45911;-68
2022/03/13 03:19:32;;;;;;;30.10;18.35;;;;;;;;;;143745;591;45021;-69
2022/03/13 03:21:59;;;;;;;29.05;15.98;;;;;;;;;;143739;754;46023;-69
2022/03/13 03:24:26;;;;;;;33.13;17.67;;;;;;;;;;143740;680;46020;-69
2022/03/13 03:26:55;;;;;;;30.37;17.80;;;;;;;;;;143739;632;46912;-67
2022/03/13 03:29:23;;;;;;;33.47;20.08;;;;;;;;;;143743;719;46018;-68
2022/03/13 03:31:51;;;;;;;31.37;20.37;;;;;;;;;;143741;579;46020;-68
2022/03/13 03:34:20;;;;;;;30.23;20.15;;;;;;;;;;143739;619;46920;-69
2022/03/13 03:36:50;;;;;;;35.53;21.92;;;;;;;;;;143742;677;46010;-68
2022/03/13 03:39:19;;;;;;;34.17;20.02;;;;;;;;;;143743;591;45020;-70
2022/03/13 03:41:48;;;;;;;35.92;23.30;;;;;;;;;;143741;581;46021;-68
2022/03/13 03:44:16;;;;;;;34.28;22.30;;;;;;;;;;143738;594;46020;-67
2022/03/13 03:46:44;;;;;;;35.90;23.45;;;;;;;;;;143742;577;45912;-67
2022/03/13 03:49:12;;;;;;;38.10;25.77;;;;;;;;;;143740;589;46020;-68
2022/03/13 03:51:39;;;;;;;42.40;23.65;;;;;;;;;;143741;594;46023;-68
2022/03/13 03:54:07;;;;;;;41.35;23.23;;;;;;;;;;143738;585;46920;-67
2022/03/13 03:56:35;;;;;;;33.95;20.50;;;;;;;;;;143741;590;46010;-67
2022/03/13 03:59:02;;;;;;;35.42;20.98;;;;;;;;;;143744;603;45021;-68
2022/03/13 04:01:36;;;;;;;43.50;24.23;;;;;;;;;;143741;594;46020;-68
2022/03/13 04:04:05;;;;;;;45.60;24.53;;;;;;;;;;143737;595;46920;-69
2022/03/13 04:06:33;;;;;;;45.80;25.30;;;;;;;;;;143743;582;46010;-68
2022/03/13 04:09:00;;;;;;;62.80;33.20;;;;;;;;;;143742;578;46020;-68
2022/03/13 04:11:27;;;;;;;68.45;31.85;;;;;;;;;;143742;600;46022;-68
2022/03/13 04:13:55;;;;;;;51.58;29.60;;;;;;;;;;143738;717;46920;-68
2022/03/13 04:16:22;;;;;;;62.47;32.53;;;;;;;;;;143742;596;46012;-68
2022/03/13 04:18:49;;;;;;;59.58;29.92;;;;;;;;;;143742;588;45021;-68
2022/03/13 04:21:16;;;;;;;53.72;30.23;;;;;;;;;;143738;657;47020;-69
2022/03/13 04:23:43;;;;;;;48.10;26.65;;;;;;;;;;143739;601;46020;-68
2022/03/13 04:26:10;;;;;;;53.08;26.08;;;;;;;;;;143741;577;46013;-69
2022/03/13 04:28:37;;;;;;;51.40;27.10;;;;;;;;;;143741;567;45020;-68
2022/03/13 04:31:06;;;;;;;54.28;27.30;;;;;;;;;;143742;589;46020;-68
2022/03/13 04:33:34;;;;;;;54.50;27.23;;;;;;;;;;143741;593;46021;-68
2022/03/13 04:36:05;;;;;;;52.05;26.05;;;;;;;;;;143742;591;46012;-69
2022/03/13 04:38:32;;;;;;;54.90;28.05;;;;;;;;;;143743;608;45026;-68
2022/03/13 04:40:59;;;;;;;48.78;25.92;;;;;;;;;;143742;688;46021;-68
2022/03/13 04:43:26;;;;;;;41.15;24.87;;;;;;;;;;143739;604;46920;-70
2022/03/13 04:45:53;;;;;;;46.67;25.40;;;;;;;;;;143741;565;45914;-67
2022/03/13 04:48:20;;;;;;;41.78;21.05;;;;;;;;;;143743;612;46021;-67
2022/03/13 04:50:48;;;;;;;47.53;26.95;;;;;;;;;;143743;587;46020;-70
2022/03/13 04:53:15;;;;;;;43.83;26.65;;;;;;;;;;143740;591;46020;-69
2022/03/13 04:55:42;;;;;;;41.83;25.67;;;;;;;;;;143742;605;45914;-69
2022/03/13 04:58:10;;;;;;;40.58;25.70;;;;;;;;;;143744;565;46020;-68
2022/03/13 05:00:38;;;;;;;47.85;25.90;;;;;;;;;;143741;565;46022;-69
2022/03/13 05:03:06;;;;;;;43.47;25.83;;;;;;;;;;143739;591;46920;-69
2022/03/13 05:05:34;;;;;;;45.53;27.05;;;;;;;;;;143740;604;46012;-69
2022/03/13 05:08:15;;;;;;;49.42;28.27;;;;;;;;;;143743;578;46020;-70
2022/03/13 05:10:47;;;;;;;55.40;27.50;;;;;;;;;;143743;571;46012;-69
2022/03/13 05:13:15;;;;;;;45.30;28.05;;;;;;;;;;143741;576;46020;-70
2022/03/13 05:15:43;;;;;;;47.53;26.05;;;;;;;;;;143740;569;46044;-69
2022/03/13 05:18:10;;;;;;;45.60;24.87;;;;;;;;;;143744;588;45021;-68
2022/03/13 05:20:37;;;;;;;48.22;28.55;;;;;;;;;;143742;609;46020;-69
2022/03/13 05:23:06;;;;;;;37.95;25.23;;;;;;;;;;143738;586;46919;-69
2022/03/13 05:25:35;;;;;;;46.88;27.35;;;;;;;;;;143742;590;45914;-69
2022/03/13 05:28:05;;;;;;;46.17;26.80;;;;;;;;;;143742;609;46020;-68
2022/03/13 05:30:32;;;;;;;44.38;26.95;;;;;;;;;;143742;593;46022;-69
2022/03/13 05:33:00;;;;;;;40.38;24.77;;;;;;;;;;143740;564;46021;-70
2022/03/13 05:35:27;;;;;;;50.92;27.42;;;;;;;;;;143742;734;45913;-68
2022/03/13 05:37:54;;;;;;;47.58;26.12;;;;;;;;;;143743;569;46020;-69
2022/03/13 05:40:22;;;;;;;41.88;25.45;;;;;;;;;;143739;660;46022;-69
2022/03/13 05:42:58;;;;;;;42.25;24.05;;;;;;;;;;143741;571;46020;-68
2022/03/13 05:45:27;;;;;;;37.78;22.95;;;;;;;;;;143741;566;46914;-69
2022/03/13 05:47:59;;;;;;;33.95;21.05;;;;;;;;;;143746;564;45021;-68
2022/03/13 05:50:29;;;;;;;37.78;22.42;;;;;;;;;;143744;602;46020;-68
2022/03/13 05:52:56;;;;;;;37.97;25.08;;;;;;;;;;143741;575;46020;-69
2022/03/13 05:55:25;;;;;;;35.72;25.98;;;;;;;;;;143743;566;46021;-68
2022/03/13 05:57:55;;;;;;;36.58;22.60;;;;;;;;;;143744;691;46020;-68
2022/03/13 06:00:25;;;;;;;34.22;22.40;;;;;;;;;;143743;605;46020;-68
2022/03/13 06:02:55;;;;;;;34.88;21.60;;;;;;;;;;143743;587;46013;-68
2022/03/13 06:05:25;;;;;;;37.17;22.02;;;;;;;;;;143744;579;45914;-68
2022/03/13 06:07:59;;;;;;;35.45;22.58;;;;;;;;;;143732;616;46020;-67
2022/03/13 06:10:28;;;;;;;34.97;23.92;;;;;;;;;;143731;590;45021;-68
2022/03/13 06:25:50;;;;;;;33.00;21.85;;;;;;;;;;143731;730;45023;-67
2022/03/13 06:28:19;;;;;;;27.20;18.52;;;;;;;;;;143732;575;46012;-66
2022/03/13 06:30:48;;;;;;;29.73;20.37;;;;;;;;;;143729;580;46022;-67
2022/03/13 06:33:16;;;;;;;45.22;23.55;;;;;;;;;;143729;628;46920;-67
2022/03/13 06:35:44;;;;;;;42.47;23.10;;;;;;;;;;143731;583;46020;-67
2022/03/13 06:38:16;;;;;;;30.98;19.42;;;;;;;;;;143733;640;45020;-67
2022/03/13 06:40:52;;;;;;;34.45;20.80;;;;;;;;;;143730;564;46023;-67
2022/03/13 06:43:24;;;;;;;34.13;20.55;;;;;;;;;;143729;580;46919;-68
2022/03/13 06:45:56;;;;;;;27.67;17.95;;;;;;;;;;143729;597;46020;-67
2022/03/13 06:48:32;;;;;;;29.17;20.17;;;;;;;;;;143732;564;46021;-68
2022/03/13 06:51:05;;;;;;;29.67;20.17;;;;;;;;;;143730;646;46020;-68
2022/03/13 06:53:35;;;;;;;35.72;20.00;;;;;;;;;;143728;619;46918;-68
2022/03/13 06:56:05;;;;;;;33.45;20.42;;;;;;;;;;143731;579;45912;-68
2022/03/13 06:58:42;;;;;;;31.45;19.17;;;;;;;;;;143733;569;45020;-67
2022/03/13 07:01:18;;;;;;;31.10;18.60;;;;;;;;;;143730;582;46022;-68
2022/03/13 07:03:57;;;;;;;32.85;19.48;;;;;;;;;;143730;587;46012;-68
2022/03/13 07:06:40;;;;;;;28.42;17.85;;;;;;;;;;143734;577;46012;-68
2022/03/13 07:09:16;;;;;;;30.30;19.05;;;;;;;;;;143748;565;45021;-68
2022/03/13 07:11:48;;;;;;;29.55;17.17;;;;;;;;;;143747;761;45023;-68
2022/03/13 07:14:21;;;;;;;36.63;19.87;;;;;;;;;;143744;604;46020;-68
2022/03/13 07:17:00;;;;;;;28.40;18.73;;;;;;;;;;143744;622;46021;-68
2022/03/13 07:19:36;;;;;;;29.70;19.67;;;;;;;;;;143749;571;45021;-68
2022/03/13 07:22:12;;;;;;;27.80;18.10;;;;;;;;;;143746;565;45022;-68
2022/03/13 07:24:46;;;;;;;26.05;16.33;;;;;;;;;;143744;594;46919;-68
2022/03/13 07:27:21;;;;;;;24.65;15.48;;;;;;;;;;143745;649;45912;-67
2022/03/13 07:29:56;;;;;;;21.33;15.40;;;;;;;;;;143747;605;45020;-67
2022/03/13 07:32:28;;;;;;;24.98;16.45;;;;;;;;;;143745;580;45914;-67
2022/03/13 07:34:56;;;;;;;19.98;14.55;;;;;;;;;;143745;629;45918;-67
2022/03/13 07:37:28;;;;;;;23.20;15.35;;;;;;;;;;143745;614;45912;-67
2022/03/13 07:39:58;;;;;;;21.33;15.10;;;;;;;;;;143748;587;45021;-67
2022/03/13 07:50:17;;;;;;;24.55;14.35;;;;;;;;;;143753;622;45020;-67
2022/03/13 07:52:56;;;;;;;21.52;15.10;;;;;;;;;;143746;579;45022;-68
2022/03/13 07:55:38;;;;;;;18.17;13.20;;;;;;;;;;143745;602;45919;-69
2022/03/13 07:58:24;;;;;;;23.00;15.50;;;;;;;;;;143745;562;45911;-69
2022/03/13 08:01:08;;;;;;;21.20;15.50;;;;;;;;;;143747;570;46020;-69
2022/03/13 08:03:45;;;;;;;20.10;12.57;;;;;;;;;;143747;586;45023;-69
2022/03/13 08:06:26;;;;;;;16.45;12.00;;;;;;;;;;143742;575;45917;-70
2022/03/13 08:09:10;;;;;;;17.67;12.35;;;;;;;;;;143732;569;45021;-69
2022/03/13 08:16:56;;;;;;;16.50;12.37;;;;;;;;;;143742;580;45956;-68
2022/03/13 08:19:35;;;;;;;15.93;10.85;;;;;;;;;;143732;598;45020;-68
2022/03/13 08:35:07;;;;;;;19.35;11.23;;;;;;;;;;143732;618;45020;-69
2022/03/13 08:40:30;;;;;;;18.48;10.80;;;;;;;;;;143733;579;45023;-69
2022/03/13 08:50:53;;;;;;;17.80;10.80;;;;;;;;;;143733;590;45022;-68
2022/03/13 08:58:42;;;;;;;14.40;10.40;;;;;;;;;;143731;631;45950;-68
2022/03/13 09:01:25;;;;;;;13.77;10.05;;;;;;;;;;143731;585;45913;-68
2022/03/13 09:03:56;;;;;;;14.40;11.25;;;;;;;;;;143732;569;46020;-68
2022/03/13 09:06:28;;;;;;;13.80;9.77;;;;;;;;;;143735;587;46022;-69
2022/03/13 09:16:47;;;;;;;12.85;9.32;;;;;;;;;;143746;578;45021;-68
2022/03/13 09:19:23;;;;;;;14.55;11.02;;;;;;;;;;143744;579;46020;-68
2022/03/13 09:26:55;;;;;;;14.73;10.32;;;;;;;;;;143746;692;46012;-68
2022/03/13 09:29:29;;;;;;;13.07;9.73;;;;;;;;;;143744;605;46920;-68
2022/03/13 09:32:03;;;;;;;14.47;10.30;;;;;;;;;;143745;573;45915;-68
2022/03/13 09:34:38;;;;;;;12.90;8.85;;;;;;;;;;143748;607;45020;-68
2022/03/13 09:37:12;;;;;;;14.32;9.90;;;;;;;;;;143745;589;45915;-68
2022/03/13 09:39:45;;;;;;;14.30;10.25;;;;;;;;;;143743;594;46921;-69
2022/03/13 09:42:13;;;;;;;12.60;9.20;;;;;;;;;;143745;591;45913;-69
2022/03/13 09:44:43;;;;;;;12.07;8.43;;;;;;;;;;143748;573;45020;-68
2022/03/13 09:47:30;;;;;;;13.73;9.65;;;;;;;;;;143743;585;47023;-68
2022/03/13 10:08:13;;;;;;;12.98;7.78;;;;;;;;;;143747;623;45021;-69
2022/03/13 10:10:53;;;;;;;9.50;6.65;;;;;;;;;;143745;624;45919;-69
2022/03/13 10:13:43;;;;;;;12.30;8.45;;;;;;;;;;143744;586;45912;-68
2022/03/13 10:16:41;;;;;;;10.02;7.30;;;;;;;;;;143748;622;45021;-69
2022/03/13 10:19:27;;;;;;;10.13;7.00;;;;;;;;;;143745;629;45915;-69
2022/03/13 10:22:33;;;;;;;11.85;7.03;;;;;;;;;;143743;574;46021;-69
2022/03/13 10:25:14;;;;;;;10.52;7.57;;;;;;;;;;143744;604;47020;-69
2022/03/13 10:27:49;;;;;;;9.48;7.45;;;;;;;;;;143749;642;45020;-69
2022/03/13 10:30:29;;;;;;;10.68;7.53;;;;;;;;;;143746;628;45022;-67
2022/03/13 10:41:12;;;;;;;9.98;7.47;;;;;;;;;;143746;595;46020;-68
2022/03/13 10:44:06;;;;;;;10.10;7.53;;;;;;;;;;143744;870;45918;-68
2022/03/13 10:46:36;;;;;;;10.35;8.02;;;;;;;;;;143745;782;45912;-69
2022/03/13 10:49:09;;;;;;;12.27;8.75;;;;;;;;;;143747;587;46020;-71
2022/03/13 10:51:49;;;;;;;10.55;7.78;;;;;;;;;;143739;564;46022;-68
2022/03/13 10:54:34;;;;;;;10.55;7.97;;;;;;;;;;143740;576;46021;-71
2022/03/13 10:57:12;;;;;;;10.40;7.97;;;;;;;;;;143742;773;46020;-70
2022/03/13 10:59:43;;;;;;;10.27;7.72;;;;;;;;;;143744;745;46020;-71
2022/03/13 11:02:15;;;;;;;11.88;7.75;;;;;;;;;;143740;755;47020;-70
2022/03/13 11:04:52;;;;;;;11.15;7.70;;;;;;;;;;143742;569;46012;-70
2022/03/13 11:07:20;;;;;;;12.32;8.40;;;;;;;;;;143740;564;46021;-70
2022/03/13 11:09:47;;;;;;;10.07;7.50;;;;;;;;;;143744;569;46021;-67
2022/03/13 11:12:20;;;;;;;11.30;7.65;;;;;;;;;;143740;627;46022;-69
2022/03/13 11:14:52;;;;;;;11.98;7.55;;;;;;;;;;143738;635;46021;-68
2022/03/13 11:17:40;;;;;;;9.30;7.12;;;;;;;;;;143741;741;45912;-68
2022/03/13 11:20:09;;;;;;;13.43;9.18;;;;;;;;;;143740;566;46020;-69
2022/03/13 11:22:36;;;;;;;10.45;7.90;;;;;;;;;;143740;629;46022;-67
2022/03/13 11:25:06;;;;;;;13.45;8.02;;;;;;;;;;143739;719;46012;-69
2022/03/13 11:27:37;;;;;;;11.73;8.13;;;;;;;;;;143743;838;45912;-69
2022/03/13 11:30:06;;;;;;;10.75;7.82;;;;;;;;;;143741;610;46013;-69
2022/03/13 11:32:54;;;;;;;10.40;8.20;;;;;;;;;;143741;564;46023;-67
2022/03/13 11:35:25;;;;;;;9.85;7.45;;;;;;;;;;143738;587;46919;-66
2022/03/13 11:38:15;;;;;;;11.32;7.90;;;;;;;;;;143742;583;46021;-67
2022/03/13 11:40:42;;;;;;;11.95;8.13;;;;;;;;;;143743;610;46020;-67
2022/03/13 11:43:15;;;;;;;10.35;7.90;;;;;;;;;;143740;569;46022;-66
2022/03/13 11:45:47;;;;;;;11.02;7.70;;;;;;;;;;143737;605;46919;-67
2022/03/13 11:48:36;;;;;;;11.68;8.07;;;;;;;;;;143741;610;46020;-67
2022/03/13 11:51:05;;;;;;;13.18;8.80;;;;;;;;;;143743;574;45576;-68
2022/03/13 11:53:58;;;;;;;11.88;8.80;;;;;;;;;;143736;620;46023;-69
2022/03/13 11:56:27;;;;;;;12.88;9.45;;;;;;;;;;143738;564;46020;-68
2022/03/13 11:58:56;;;;;;;12.10;8.35;;;;;;;;;;143735;645;46012;-68
2022/03/13 12:01:42;;;;;;;12.57;8.70;;;;;;;;;;143739;592;46021;-67
2022/03/13 12:04:29;;;;;;;14.43;8.68;;;;;;;;;;143741;599;46020;-68
2022/03/13 12:06:58;;;;;;;15.15;9.07;;;;;;;;;;143737;634;46919;-68
2022/03/13 12:09:42;;;;;;;13.65;8.30;;;;;;;;;;143743;597;45021;-68
2022/03/13 12:12:14;;;;;;;10.82;7.85;;;;;;;;;;143739;571;46020;-68
2022/03/13 12:15:13;;;;;;;12.02;7.82;;;;;;;;;;143742;581;46022;-68
2022/03/13 12:17:48;;;;;;;12.50;7.50;;;;;;;;;;143740;577;45918;-68
2022/03/13 12:20:26;;;;;;;12.10;7.32;;;;;;;;;;143740;590;46012;-68
2022/03/13 12:22:59;;;;;;;11.02;8.18;;;;;;;;;;143740;578;45021;-69
2022/03/13 12:25:30;;;;;;;9.13;6.72;;;;;;;;;;143734;601;46022;-69
2022/03/13 12:28:00;;;;;;;11.93;7.47;;;;;;;;;;143738;601;46918;-68
2022/03/13 12:30:29;;;;;;;11.80;8.45;;;;;;;;;;143743;598;45050;-69
2022/03/13 12:33:02;;;;;;;11.75;8.25;;;;;;;;;;143741;583;45020;-69
2022/03/13 12:35:28;;;;;;;10.35;7.55;;;;;;;;;;143741;605;46022;-69
2022/03/13 12:38:01;;;;;;;11.93;7.75;;;;;;;;;;143739;578;46021;-69
2022/03/13 12:40:29;;;;;;;9.57;7.55;;;;;;;;;;143741;614;46012;-70
2022/03/13 12:42:59;;;;;;;9.95;7.47;;;;;;;;;;143743;587;46012;-69
2022/03/13 12:45:27;;;;;;;12.52;8.38;;;;;;;;;;143742;616;46023;-68
2022/03/13 12:48:00;;;;;;;10.05;7.28;;;;;;;;;;143738;617;46918;-69
2022/03/13 12:50:27;;;;;;;12.43;7.87;;;;;;;;;;143732;594;47020;-68
2022/03/13 12:53:02;;;;;;;10.93;7.43;;;;;;;;;;143740;744;46021;-68
2022/03/13 12:55:30;;;;;;;12.07;8.70;;;;;;;;;;143739;565;46022;-68
2022/03/13 12:57:59;;;;;;;10.95;7.35;;;;;;;;;;143737;584;46012;-69
2022/03/13 13:00:34;;;;;;;12.88;8.48;;;;;;;;;;143739;641;46021;-68
2022/03/13 13:03:05;;;;;;;11.32;7.45;;;;;;;;;;143741;565;46020;-68
2022/03/13 13:05:33;;;;;;;11.20;7.72;;;;;;;;;;143737;624;46022;-68
2022/03/13 13:08:00;;;;;;;9.70;7.25;;;;;;;;;;143738;653;46919;-68
2022/03/13 13:10:27;;;;;;;11.50;6.93;;;;;;;;;;143742;565;45912;-67
2022/03/13 13:12:54;;;;;;;9.15;6.93;;;;;;;;;;143743;564;45021;-69
2022/03/13 13:15:24;;;;;;;10.45;6.75;;;;;;;;;;143733;688;46023;-68
2022/03/13 13:17:53;;;;;;;9.27;6.82;;;;;;;;;;143737;589;46918;-68
2022/03/13 13:20:30;;;;;;;8.27;6.30;;;;;;;;;;143739;586;46020;-69
2022/03/13 13:23:15;;;;;;;10.65;7.62;;;;;;;;;;143743;580;45021;-68
2022/03/13 13:25:48;;;;;;;11.25;7.72;;;;;;;;;;143741;739;46012;-69
2022/03/13 13:28:15;;;;;;;12.10;7.85;;;;;;;;;;143739;588;46021;-68
2022/03/13 13:30:43;;;;;;;10.10;6.55;;;;;;;;;;143735;583;46020;-69
2022/03/13 13:33:16;;;;;;;9.02;7.07;;;;;;;;;;143742;576;45020;-68
2022/03/13 13:35:54;;;;;;;9.40;6.57;;;;;;;;;;143739;566;46022;-70
2022/03/13 13:38:29;;;;;;;9.32;6.62;;;;;;;;;;143739;732;46919;-70
2022/03/13 13:41:06;;;;;;;10.05;6.95;;;;;;;;;;143735;741;46020;-70
2022/03/13 13:43:41;;;;;;;10.77;8.10;;;;;;;;;;143738;600;46021;-68
2022/03/13 13:46:13;;;;;;;13.93;6.65;;;;;;;;;;143734;564;46023;-68
2022/03/13 13:48:49;;;;;;;10.80;7.37;;;;;;;;;;143736;586;46918;-69
2022/03/13 13:51:34;;;;;;;9.35;6.53;;;;;;;;;;143740;564;46012;-68
2022/03/13 13:54:20;;;;;;;11.93;7.45;;;;;;;;;;143741;596;45020;-70
2022/03/13 13:56:55;;;;;;;11.90;7.47;;;;;;;;;;143739;596;46020;-68
2022/03/13 13:59:32;;;;;;;12.73;6.95;;;;;;;;;;143741;682;45919;-69
2022/03/13 14:02:27;;;;;;;10.35;7.43;;;;;;;;;;143740;632;46012;-68
2022/03/13 14:04:55;;;;;;;9.13;6.18;;;;;;;;;;143739;569;46020;-68
2022/03/13 14:07:22;;;;;;;10.07;7.62;;;;;;;;;;143734;611;46029;-69
2022/03/13 14:10:02;;;;;;;10.52;6.85;;;;;;;;;;143740;578;46012;-69
2022/03/13 14:12:29;;;;;;;10.55;7.50;;;;;;;;;;143740;678;46020;-68
2022/03/13 14:14:56;;;;;;;9.88;7.20;;;;;;;;;;143742;624;46012;-68
2022/03/13 14:17:23;;;;;;;11.25;7.40;;;;;;;;;;143739;738;46022;-67
2022/03/13 14:19:51;;;;;;;10.30;7.32;;;;;;;;;;143738;587;46012;-67
2022/03/13 14:22:18;;;;;;;10.63;8.20;;;;;;;;;;143742;574;45913;-68
2022/03/13 14:24:45;;;;;;;9.70;7.28;;;;;;;;;;143740;583;46020;-68
2022/03/13 14:27:13;;;;;;;11.98;7.85;;;;;;;;;;143739;578;47022;-67
2022/03/13 14:29:40;;;;;;;9.23;6.68;;;;;;;;;;143736;564;46919;-68
2022/03/13 14:32:08;;;;;;;8.88;6.32;;;;;;;;;;143733;619;46020;-68
2022/03/13 14:34:35;;;;;;;9.52;7.68;;;;;;;;;;143739;615;46020;-68
2022/03/13 14:37:02;;;;;;;11.70;7.47;;;;;;;;;;143742;574;46023;-68
2022/03/13 14:39:29;;;;;;;9.98;7.45;;;;;;;;;;143737;599;46033;-67
2022/03/13 14:41:56;;;;;;;11.52;8.52;;;;;;;;;;143740;644;46010;-68
2022/03/13 14:44:23;;;;;;;13.18;8.18;;;;;;;;;;143741;596;45021;-67
2022/03/13 14:46:50;;;;;;;10.57;7.15;;;;;;;;;;143736;580;47022;-67
2022/03/13 14:49:17;;;;;;;12.23;7.75;;;;;;;;;;143737;577;47020;-68
2022/03/13 14:51:44;;;;;;;9.75;7.05;;;;;;;;;;143739;577;46021;-67
2022/03/13 14:54:12;;;;;;;11.75;7.60;;;;;;;;;;143742;569;46020;-68
2022/03/13 14:56:39;;;;;;;10.27;7.32;;;;;;;;;;143733;590;46022;-66
2022/03/13 14:59:06;;;;;;;10.18;7.53;;;;;;;;;;143738;572;46021;-68
2022/03/13 15:01:36;;;;;;;9.82;7.65;;;;;;;;;;143739;569;46010;-67
2022/03/13 15:04:04;;;;;;;10.77;7.35;;;;;;;;;;143742;661;46020;-66
2022/03/13 15:06:33;;;;;;;11.88;7.87;;;;;;;;;;143739;666;46022;-67
2022/03/13 15:09:03;;;;;;;11.38;7.62;;;;;;;;;;143737;569;46918;-66
2022/03/13 15:11:30;;;;;;;15.38;9.15;;;;;;;;;;143738;621;46020;-66
2022/03/13 15:13:58;;;;;;;10.60;7.70;;;;;;;;;;143742;578;46010;-67
2022/03/13 15:16:25;;;;;;;11.90;7.12;;;;;;;;;;143742;589;46042;-68
2022/03/13 15:18:52;;;;;;;11.77;7.80;;;;;;;;;;143740;643;46020;-68
2022/03/13 15:21:19;;;;;;;10.95;7.40;;;;;;;;;;143736;619;45911;-67
2022/03/13 15:23:46;;;;;;;10.75;7.32;;;;;;;;;;143739;564;46010;-69
2022/03/13 15:26:14;;;;;;;10.30;7.62;;;;;;;;;;143741;595;46022;-67
2022/03/13 15:28:41;;;;;;;9.23;7.12;;;;;;;;;;143733;650;47010;-67
2022/03/13 15:31:08;;;;;;;11.00;7.40;;;;;;;;;;143742;648;46020;-66
2022/03/13 15:33:35;;;;;;;14.65;9.82;;;;;;;;;;143735;603;47010;-67
2022/03/13 15:36:02;;;;;;;13.70;7.78;;;;;;;;;;143740;564;46022;-68
2022/03/13 15:38:29;;;;;;;10.25;7.20;;;;;;;;;;143738;569;46919;-69
2022/03/13 15:40:56;;;;;;;10.55;8.05;;;;;;;;;;143739;606;46020;-67
2022/03/13 15:43:24;;;;;;;14.02;8.27;;;;;;;;;;143742;591;45021;-68
2022/03/13 15:45:51;;;;;;;11.55;7.95;;;;;;;;;;143733;589;46023;-67
2022/03/13 15:48:19;;;;;;;11.15;7.60;;;;;;;;;;143738;571;46020;-67
2022/03/13 15:50:45;;;;;;;10.98;7.45;;;;;;;;;;143741;571;45911;-67
2022/03/13 15:53:13;;;;;;;12.15;7.53;;;;;;;;;;143740;591;46020;-66
2022/03/13 15:55:40;;;;;;;10.52;7.47;;;;;;;;;;143740;613;46051;-68
2022/03/13 15:58:07;;;;;;;10.75;7.25;;;;;;;;;;143735;566;46918;-67
2022/03/13 16:00:34;;;;;;;13.00;8.20;;;;;;;;;;143740;581;46010;-66
2022/03/13 16:03:01;;;;;;;10.90;7.85;;;;;;;;;;143739;571;46020;-68
2022/03/13 16:05:28;;;;;;;10.02;7.65;;;;;;;;;;143741;570;46022;-66
2022/03/13 16:07:58;;;;;;;11.32;7.43;;;;;;;;;;143736;569;47919;-66
2022/03/13 16:10:25;;;;;;;15.80;8.73;;;;;;;;;;143736;618;45910;-67
2022/03/13 16:12:52;;;;;;;11.07;7.95;;;;;;;;;;143740;570;46020;-68
2022/03/13 16:15:20;;;;;;;11.70;8.27;;;;;;;;;;143741;645;46023;-67
2022/03/13 16:17:46;;;;;;;11.52;7.87;;;;;;;;;;143741;613;46020;-67
2022/03/13 16:20:14;;;;;;;11.75;8.35;;;;;;;;;;143742;567;46010;-66